Time;durP1;ratioP1;P1;durP2;ratioP2;P2;SDS_P1;SDS_P2;PMS_P1;PMS_P2;Temp;Humidity;BMP_temperature;BMP_pressure;BME280_temperature;BME280_humidity;BME280_pressure;Samples;Min_cycle;Max_cycle;Signal;HPM_P1;HPM_P2
2022/09/11 00:00:22;;;;;;;24.15;17.55;;;;;;;13.42;100.00;101585.28;1263363;23;20336;-78
2022/09/11 00:00:54;;;;;;;23.00;16.58;;;;;;;13.42;100.00;101593.31;1266568;23;20691;-77
2022/09/11 00:01:27;;;;;;;23.23;17.98;;;;;;;13.41;100.00;101589.00;1252921;23;20262;-78
2022/09/11 00:01:59;;;;;;;23.90;17.50;;;;;;;13.39;100.00;101586.53;1243854;23;20324;-77
2022/09/11 00:02:31;;;;;;;23.30;17.77;;;;;;;13.39;100.00;101588.41;1238646;23;20261;-78
2022/09/11 00:03:03;;;;;;;25.08;18.45;;;;;;;13.40;100.00;101592.72;1238417;23;20264;-77
2022/09/11 00:03:35;;;;;;;28.80;17.88;;;;;;;13.41;100.00;101584.47;1245236;23;20747;-78
2022/09/11 00:04:08;;;;;;;27.90;17.60;;;;;;;13.40;100.00;101590.03;1255878;23;20731;-77
2022/09/11 00:04:39;;;;;;;23.20;18.40;;;;;;;13.40;100.00;101593.53;1255809;23;20306;-78
2022/09/11 00:05:11;;;;;;;23.13;17.40;;;;;;;13.49;100.00;101591.44;1252572;23;20675;-78
2022/09/11 00:05:43;;;;;;;24.88;16.98;;;;;;;13.46;100.00;101590.03;1249537;23;20266;-77
2022/09/11 00:06:17;;;;;;;23.35;17.05;;;;;;;13.44;100.00;101591.28;1244425;23;20249;-77
2022/09/11 00:07:00;;;;;;;23.90;17.63;;;;;;;13.40;100.00;101587.38;1243491;23;20260;-77
2022/09/11 00:07:31;;;;;;;23.70;16.77;;;;;;;13.39;100.00;101591.91;1246702;23;20381;-78
2022/09/11 00:08:03;;;;;;;24.55;17.48;;;;;;;13.35;100.00;101589.88;1255708;23;20266;-77
2022/09/11 00:08:36;;;;;;;21.10;17.00;;;;;;;13.32;100.00;101584.97;1258152;23;20254;-77
2022/09/11 00:09:08;;;;;;;22.38;17.60;;;;;;;13.29;100.00;101581.69;1255188;23;20279;-77
2022/09/11 00:09:39;;;;;;;24.80;17.17;;;;;;;13.29;100.00;101587.03;1249160;23;20279;-77
2022/09/11 00:10:11;;;;;;;26.35;18.33;;;;;;;13.29;100.00;101587.03;1249761;23;20255;-77
2022/09/11 00:10:43;;;;;;;23.38;17.02;;;;;;;13.26;100.00;101587.47;1253830;23;20259;-77
2022/09/11 00:11:17;;;;;;;21.98;17.63;;;;;;;13.25;100.00;101582.34;1256202;23;20266;-77
2022/09/11 00:11:49;;;;;;;22.88;16.38;;;;;;;13.28;100.00;101581.91;1260681;23;20324;-77
2022/09/11 00:12:21;;;;;;;26.08;18.35;;;;;;;13.26;100.00;101576.75;1261112;23;20728;-77
2022/09/11 00:12:52;;;;;;;20.92;17.00;;;;;;;13.25;100.00;101583.16;1256114;23;20385;-77
2022/09/11 00:13:24;;;;;;;24.42;17.95;;;;;;;13.27;100.00;101583.75;1255099;23;20306;-77
2022/09/11 00:13:57;;;;;;;21.88;17.10;;;;;;;13.26;100.00;101582.13;1254729;23;20319;-77
2022/09/11 00:14:29;;;;;;;24.50;17.67;;;;;;;13.23;100.00;101577.19;1250239;23;20260;-77
2022/09/11 00:15:00;;;;;;;23.77;16.45;;;;;;;13.23;100.00;101579.88;1256344;23;20251;-77
2022/09/11 00:15:40;;;;;;;21.88;16.27;;;;;;;13.23;100.00;101571.03;1246770;23;20756;-77
2022/09/11 00:16:20;;;;;;;20.30;16.25;;;;;;;13.20;100.00;101585.66;1245839;23;20263;-78
2022/09/11 00:16:51;;;;;;;21.30;15.98;;;;;;;13.16;100.00;101579.06;1254619;23;20751;-77
2022/09/11 00:17:23;;;;;;;21.67;16.40;;;;;;;13.13;100.00;101582.16;1254385;23;20843;-77
2022/09/11 00:17:55;;;;;;;20.77;16.08;;;;;;;13.12;100.00;101580.50;1263091;23;20258;-78
2022/09/11 00:18:28;;;;;;;22.33;17.10;;;;;;;13.11;100.00;101584.22;1260357;23;20345;-77
2022/09/11 00:19:08;;;;;;;20.17;16.15;;;;;;;13.10;100.00;101587.94;1249994;23;20256;-77
2022/09/11 00:19:41;;;;;;;20.42;16.73;;;;;;;13.11;100.00;101583.41;1247055;23;20331;-77
2022/09/11 00:20:13;;;;;;;21.17;16.10;;;;;;;13.09;100.00;101585.47;1257588;23;20018;-77
2022/09/11 00:20:52;;;;;;;23.23;16.77;;;;;;;13.05;100.00;101582.41;1264199;23;20274;-77
2022/09/11 00:21:24;;;;;;;24.98;17.42;;;;;;;13.04;100.00;101588.78;1263787;23;20254;-78
2022/09/11 00:21:56;;;;;;;21.98;15.77;;;;;;;13.06;100.00;101592.06;1258524;23;20685;-77
2022/09/11 00:22:27;;;;;;;23.08;17.02;;;;;;;13.05;100.00;101590.44;1255220;23;20255;-78
2022/09/11 00:23:04;;;;;;;22.92;16.77;;;;;;;13.02;100.00;101595.41;1256019;23;20255;-77
2022/09/11 00:23:35;;;;;;;25.38;16.35;;;;;;;12.99;100.00;101588.63;1257002;23;20306;-77
2022/09/11 00:24:08;;;;;;;22.25;16.08;;;;;;;13.01;100.00;101599.91;1261159;23;20306;-77
2022/09/11 00:24:40;;;;;;;19.83;16.20;;;;;;;12.99;100.00;101593.97;1261105;23;20254;-77
2022/09/11 00:25:12;;;;;;;22.83;16.52;;;;;;;12.98;100.00;101597.69;1262439;23;20608;-77
2022/09/11 00:25:45;;;;;;;21.13;16.65;;;;;;;12.99;100.00;101591.28;1260653;23;20266;-78
2022/09/11 00:26:17;;;;;;;25.33;17.13;;;;;;;12.99;100.00;101593.97;1255307;23;20266;-78
2022/09/11 00:26:48;;;;;;;22.60;16.05;;;;;;;12.99;100.00;101593.97;1249356;23;20283;-77
2022/09/11 00:27:20;;;;;;;20.38;16.17;;;;;;;13.02;100.00;101600.75;1248394;23;20264;-77
2022/09/11 00:27:51;;;;;;;21.73;15.57;;;;;;;13.01;100.00;101597.25;1259880;23;20266;-77
2022/09/11 00:28:24;;;;;;;24.30;17.50;;;;;;;13.02;100.00;101598.06;1267048;23;20257;-77
2022/09/11 00:28:56;;;;;;;22.95;16.33;;;;;;;13.00;100.00;101599.09;1261747;23;20616;-77
2022/09/11 00:29:28;;;;;;;21.55;15.43;;;;;;;13.01;100.00;101599.91;1258607;23;20293;-78
2022/09/11 00:30:00;;;;;;;19.60;16.95;;;;;;;12.98;100.00;101597.69;1255018;23;20258;-77
2022/09/11 00:30:32;;;;;;;23.65;17.38;;;;;;;13.01;100.00;101599.91;1247693;23;20671;-78
2022/09/11 00:31:06;;;;;;;20.40;16.30;;;;;;;13.00;100.00;101598.28;1256013;23;20255;-77
2022/09/11 00:31:38;;;;;;;22.80;16.98;;;;;;;13.00;100.00;101596.44;1253243;23;20609;-77
2022/09/11 00:32:09;;;;;;;24.52;17.15;;;;;;;13.04;100.00;101602.16;1248917;23;20255;-77
2022/09/11 00:32:41;;;;;;;21.90;17.52;;;;;;;13.07;100.00;101604.41;1250830;23;20263;-77
2022/09/11 00:33:14;;;;;;;20.85;16.25;;;;;;;13.08;100.00;101605.22;1259896;23;20313;-77
2022/09/11 00:33:47;;;;;;;19.88;15.95;;;;;;;13.06;100.00;101602.78;1261706;23;20302;-77
2022/09/11 00:34:18;;;;;;;21.25;16.05;;;;;;;13.08;100.00;101603.38;1253305;23;20327;-77
2022/09/11 00:34:50;;;;;;;19.60;15.82;;;;;;;13.08;100.00;101600.69;1253838;23;20331;-77
2022/09/11 00:35:22;;;;;;;21.88;16.85;;;;;;;13.08;100.00;101600.69;1252879;23;20375;-77
2022/09/11 00:36:02;;;;;;;21.08;17.33;;;;;;;13.10;100.00;101603.97;1247790;23;20665;-77
2022/09/11 00:36:40;;;;;;;22.88;15.93;;;;;;;13.07;100.00;101604.41;1247374;23;20263;-77
2022/09/11 00:37:12;;;;;;;23.67;16.98;;;;;;;13.06;100.00;101605.44;1239653;23;20075;-78
2022/09/11 00:37:44;;;;;;;23.90;18.25;;;;;;;13.05;100.00;101611.00;1250877;23;20351;-78
2022/09/11 00:38:15;;;;;;;22.80;16.48;;;;;;;13.00;100.00;101598.28;1247792;23;20282;-77
2022/09/11 00:38:49;;;;;;;19.85;15.75;;;;;;;13.05;100.00;101605.66;1238103;23;20828;-77
2022/09/11 00:39:20;;;;;;;22.95;16.73;;;;;;;13.03;100.00;101605.88;1237884;24;20563;-77
2022/09/11 00:39:53;;;;;;;20.95;16.27;;;;;;;13.03;100.00;101605.88;1240181;23;20317;-77
2022/09/11 00:40:25;;;;;;;20.95;15.10;;;;;;;13.02;100.00;101606.09;1255981;23;20266;-77
2022/09/11 00:40:58;;;;;;;21.10;16.48;;;;;;;12.99;100.00;101608.16;1262655;23;20603;-77
2022/09/11 00:41:34;;;;;;;23.83;17.50;;;;;;;13.00;100.00;101606.31;1247005;23;20275;-77
2022/09/11 00:42:08;;;;;;;19.55;16.98;;;;;;;12.98;100.00;101609.19;1235929;23;20269;-77
2022/09/11 00:42:40;;;;;;;23.65;18.02;;;;;;;12.96;100.00;101603.25;1247796;23;20271;-77
2022/09/11 00:43:16;;;;;;;24.35;18.17;;;;;;;12.98;100.00;101600.34;1253739;23;20271;-77
2022/09/11 00:44:01;;;;;;;23.50;18.80;;;;;;;12.93;100.00;101605.53;1249146;23;20426;-77
2022/09/11 00:44:32;;;;;;;26.77;17.65;;;;;;;12.91;100.00;101604.91;1255363;23;20260;-77
2022/09/11 00:45:06;;;;;;;20.98;16.75;;;;;;;12.89;100.00;101601.63;1255381;23;20263;-77
2022/09/11 00:45:37;;;;;;;24.90;16.27;;;;;;;12.87;100.00;101603.69;1256990;23;20255;-77
2022/09/11 00:46:09;;;;;;;26.95;18.65;;;;;;;12.85;100.00;101605.75;1253616;23;20267;-77
2022/09/11 00:46:43;;;;;;;26.73;19.25;;;;;;;12.81;100.00;101604.53;1249225;23;20904;-77
2022/09/11 00:47:17;;;;;;;25.73;18.80;;;;;;;12.81;100.00;101607.22;1249786;23;20259;-77
2022/09/11 00:47:50;;;;;;;20.70;17.58;;;;;;;12.78;100.00;101604.97;1242789;23;20272;-77
2022/09/11 00:48:23;;;;;;;23.05;18.05;;;;;;;12.79;100.00;101598.59;1249643;23;20440;-77
2022/09/11 00:48:57;;;;;;;24.92;18.17;;;;;;;12.77;100.00;101608.66;1253263;23;20290;-77
2022/09/11 00:49:40;;;;;;;22.30;17.05;;;;;;;12.75;100.00;101605.38;1258878;23;20641;-77
2022/09/11 00:50:16;;;;;;;23.80;17.48;;;;;;;12.76;100.00;101601.69;1267828;23;20788;-77
2022/09/11 00:50:51;;;;;;;22.45;18.50;;;;;;;12.73;100.00;101599.44;1253378;23;20295;-77
2022/09/11 00:51:25;;;;;;;25.90;18.05;;;;;;;12.73;100.00;101604.78;1255363;23;20259;-77
2022/09/11 00:52:19;;;;;;;24.00;17.63;;;;;;;12.73;100.00;101607.44;1235616;24;20336;-77
2022/09/11 00:52:57;;;;;;;22.80;15.82;;;;;;;12.72;100.00;101611.97;1246424;23;20286;-77
2022/09/11 00:53:32;;;;;;;21.20;16.77;;;;;;;12.72;100.00;101616.50;1249889;23;20465;-77
2022/09/11 00:54:04;;;;;;;20.60;17.02;;;;;;;12.68;100.00;101616.09;1247308;23;20275;-77
2022/09/11 00:55:06;;;;;;;22.90;15.93;;;;;;;12.69;100.00;101618.56;1249477;23;20268;-77
2022/09/11 00:55:40;;;;;;;25.98;17.63;;;;;;;12.69;100.00;101613.22;1247836;23;20275;-77
2022/09/11 00:56:12;;;;;;;27.65;19.25;;;;;;;12.69;100.00;101607.06;1249748;23;20255;-77
2022/09/11 00:56:44;;;;;;;27.27;18.40;;;;;;;12.67;100.00;101617.97;1235769;24;20413;-77
2022/09/11 00:57:17;;;;;;;28.92;18.98;;;;;;;12.69;100.00;101615.06;1237394;23;20364;-77
2022/09/11 00:57:56;;;;;;;24.27;17.65;;;;;;;12.71;100.00;101620.22;1248331;23;20278;-77
2022/09/11 00:58:32;;;;;;;26.63;18.25;;;;;;;12.69;100.00;101615.91;1260775;23;20596;-77
2022/09/11 00:59:04;;;;;;;23.95;17.92;;;;;;;12.72;100.00;101611.16;1264808;23;20286;-77
2022/09/11 00:59:38;;;;;;;24.20;17.02;;;;;;;12.72;100.00;101611.97;1250490;23;20266;-77
2022/09/11 01:00:12;;;;;;;23.60;17.45;;;;;;;12.73;100.00;101610.94;1249548;23;20588;-77
2022/09/11 01:00:44;;;;;;;27.00;18.10;;;;;;;12.71;100.00;101609.53;1249183;23;20268;-77
2022/09/11 01:01:15;;;;;;;26.20;18.73;;;;;;;12.72;100.00;101611.97;1242633;23;20288;-77
2022/09/11 01:01:47;;;;;;;25.55;17.95;;;;;;;12.69;100.00;101610.56;1250562;23;20260;-77
2022/09/11 01:02:21;;;;;;;28.02;19.80;;;;;;;12.73;100.00;101610.13;1256010;23;20357;-77
2022/09/11 01:02:58;;;;;;;31.98;19.67;;;;;;;12.71;100.00;101610.34;1253514;23;20252;-77
2022/09/11 01:03:30;;;;;;;24.27;18.40;;;;;;;12.67;100.00;101609.94;1255840;23;20564;-77
2022/09/11 01:04:04;;;;;;;25.77;18.58;;;;;;;12.69;100.00;101605.19;1249498;23;20256;-77
2022/09/11 01:04:36;;;;;;;25.05;18.13;;;;;;;12.70;100.00;101608.69;1246127;23;20474;-77
2022/09/11 01:05:08;;;;;;;22.80;17.88;;;;;;;12.68;100.00;101605.41;1250431;23;20266;-77
2022/09/11 01:05:42;;;;;;;27.50;18.85;;;;;;;12.68;100.00;101603.56;1249087;23;20581;-77
2022/09/11 01:06:13;;;;;;;22.35;16.95;;;;;;;12.69;100.00;101602.53;1249574;23;20248;-77
2022/09/11 01:06:45;;;;;;;24.42;18.85;;;;;;;12.65;100.00;101595.97;1247326;23;20834;-77
2022/09/11 01:07:18;;;;;;;23.75;17.83;;;;;;;12.67;100.00;101604.59;1255628;23;20373;-77
2022/09/11 01:07:53;;;;;;;23.77;17.48;;;;;;;12.68;100.00;101600.91;1254973;23;20266;-77
2022/09/11 01:08:24;;;;;;;23.10;18.00;;;;;;;12.68;100.00;101605.41;1255604;23;20262;-77
2022/09/11 01:08:58;;;;;;;22.20;18.30;;;;;;;12.69;100.00;101601.72;1253532;23;20266;-77
2022/09/11 01:09:30;;;;;;;26.05;19.35;;;;;;;12.69;100.00;101602.53;1252480;23;20263;-77
2022/09/11 01:10:04;;;;;;;22.80;18.55;;;;;;;12.71;100.00;101593.47;1256758;23;20745;-77
2022/09/11 01:11:14;;;;;;;26.40;18.02;;;;;;;12.75;100.00;101595.50;1247692;23;20270;-77
2022/09/11 01:12:02;;;;;;;24.52;17.15;;;;;;;12.76;100.00;101596.34;1246068;23;20724;-77
2022/09/11 01:12:52;;;;;;;25.38;17.92;;;;;;;12.72;100.00;101598.63;1253933;23;20374;-77
2022/09/11 01:13:44;;;;;;;25.45;18.02;;;;;;;12.79;100.00;101606.59;1250482;23;20264;-77
2022/09/11 01:14:29;;;;;;;25.00;17.48;;;;;;;12.76;100.00;101602.50;1249907;23;20279;-77
2022/09/11 01:15:20;;;;;;;23.85;18.90;;;;;;;12.73;100.00;101607.44;1249041;23;20798;-77
2022/09/11 01:16:05;;;;;;;26.35;19.27;;;;;;;12.71;100.00;101604.16;1253282;23;20298;-77
2022/09/11 01:16:41;;;;;;;25.35;18.98;;;;;;;12.72;100.00;101603.13;1256817;23;20287;-77
2022/09/11 01:17:19;;;;;;;26.88;17.40;;;;;;;12.69;100.00;101610.56;1259358;23;20270;-77
2022/09/11 01:18:21;;;;;;;20.73;17.25;;;;;;;12.71;100.00;101599.66;1253836;23;20274;-77
2022/09/11 01:19:17;;;;;;;25.52;17.30;;;;;;;12.78;100.00;101608.44;1263189;23;20262;-77
2022/09/11 01:20:00;;;;;;;23.02;16.42;;;;;;;12.77;100.00;101608.66;1272420;23;20032;-77
2022/09/11 01:21:02;;;;;;;28.75;18.27;;;;;;;12.73;100.00;101608.28;1265971;23;20360;-77
2022/09/11 01:21:51;;;;;;;;;;;;;;;12.76;100.00;101602.50;1262106;23;20294;-77
2022/09/11 01:22:54;;;;;;;23.48;15.30;;;;;;;12.73;100.00;101607.44;1265736;23;19959;-77
2022/09/11 01:23:54;;;;;;;21.90;16.83;;;;;;;12.76;100.00;101602.50;1267796;23;20265;-77
2022/09/11 01:24:53;;;;;;;22.58;18.00;;;;;;;12.78;100.00;101604.97;1261581;23;20728;-77
2022/09/11 01:25:40;;;;;;;23.65;16.63;;;;;;;12.75;100.00;101600.03;1247487;23;20279;-77
2022/09/11 01:26:31;;;;;;;24.52;17.58;;;;;;;12.73;100.00;101607.44;1244712;23;20272;-77
2022/09/11 01:27:36;;;;;;;24.83;17.17;;;;;;;12.75;100.00;101606.22;1251572;23;20287;-77
2022/09/11 01:28:12;;;;;;;22.02;17.45;;;;;;;12.74;100.00;101614.44;1264198;23;20034;-77
2022/09/11 01:28:51;;;;;;;24.90;17.90;;;;;;;12.73;100.00;101607.44;1261395;23;20254;-77
2022/09/11 01:29:43;;;;;;;22.30;17.25;;;;;;;12.72;100.00;101611.16;1247507;23;20267;-77
2022/09/11 01:30:17;;;;;;;23.20;17.13;;;;;;;12.74;100.00;101609.09;1255461;23;20505;-77
2022/09/11 01:30:53;;;;;;;21.77;15.48;;;;;;;12.76;100.00;101617.72;1261750;23;20730;-77
2022/09/11 01:31:29;;;;;;;26.70;17.90;;;;;;;12.73;100.00;101618.16;1265402;23;20316;-77
2022/09/11 01:32:11;;;;;;;20.38;15.65;;;;;;;12.75;100.00;101613.41;1256814;23;20266;-77
2022/09/11 01:32:49;;;;;;;22.60;16.98;;;;;;;12.70;100.00;101624.75;1255566;23;20295;-77
2022/09/11 01:33:36;;;;;;;21.10;16.17;;;;;;;12.72;100.00;101624.53;1255304;23;20270;-77
2022/09/11 01:34:19;;;;;;;20.48;14.38;;;;;;;12.71;100.00;101628.22;1259273;23;20266;-77
2022/09/11 01:34:59;;;;;;;24.55;16.67;;;;;;;12.65;100.00;101622.69;1261493;23;20254;-77
2022/09/11 01:35:34;;;;;;;21.48;16.70;;;;;;;12.62;100.00;101625.78;1255717;23;20255;-77
2022/09/11 01:36:10;;;;;;;19.83;14.88;;;;;;;12.62;100.00;101623.13;1252852;23;20023;-77
2022/09/11 01:36:52;;;;;;;18.60;15.07;;;;;;;12.64;100.00;101628.25;1247683;23;20732;-77
2022/09/11 01:37:30;;;;;;;16.25;13.73;;;;;;;12.59;100.00;101628.03;1259322;23;20270;-77
2022/09/11 01:38:13;;;;;;;21.80;14.90;;;;;;;12.56;100.00;101629.28;1254547;23;20758;-77
2022/09/11 01:38:50;;;;;;;19.10;14.20;;;;;;;12.52;100.00;101630.75;1247383;23;20601;-77
2022/09/11 01:39:24;;;;;;;18.08;14.85;;;;;;;12.50;100.00;101635.47;1249299;23;20256;-77
2022/09/11 01:40:00;;;;;;;19.83;14.70;;;;;;;12.50;100.00;101627.47;1258272;23;21059;-77
2022/09/11 01:40:45;;;;;;;18.88;14.05;;;;;;;12.50;100.00;101624.78;1250770;23;20281;-77
2022/09/11 01:41:24;;;;;;;19.25;13.57;;;;;;;12.51;100.00;101630.94;1241607;23;20272;-77
2022/09/11 01:42:06;;;;;;;17.05;14.82;;;;;;;12.50;100.00;101630.13;1241876;23;20272;-77
2022/09/11 01:42:42;;;;;;;15.20;12.50;;;;;;;12.52;100.00;101637.94;1249745;23;20015;-77
2022/09/11 01:43:21;;;;;;;13.82;11.68;;;;;;;12.50;100.00;101624.78;1246230;23;20344;-77
2022/09/11 01:44:05;;;;;;;14.02;11.70;;;;;;;12.53;100.00;101623.53;1248025;23;20740;-77
2022/09/11 01:44:42;;;;;;;14.07;10.75;;;;;;;12.58;100.00;101619.22;1253387;23;20313;-77
2022/09/11 01:45:15;;;;;;;13.40;12.05;;;;;;;12.60;100.00;101625.19;1241607;23;20279;-77
2022/09/11 01:45:48;;;;;;;14.35;11.95;;;;;;;12.56;100.00;101629.28;1249281;23;20256;-77
2022/09/11 01:46:21;;;;;;;15.60;11.88;;;;;;;12.54;100.00;101630.53;1241596;23;20685;-77
2022/09/11 01:46:55;;;;;;;15.60;11.52;;;;;;;12.53;100.00;101624.38;1248873;23;20271;-77
2022/09/11 01:47:27;;;;;;;17.77;11.93;;;;;;;12.57;100.00;101624.75;1247483;23;20640;-77
2022/09/11 01:47:59;;;;;;;15.18;13.00;;;;;;;12.56;100.00;101617.78;1249181;23;20628;-77
2022/09/11 01:48:37;;;;;;;17.80;13.68;;;;;;;12.55;100.00;101633.00;1246775;23;20279;-77
2022/09/11 01:49:14;;;;;;;18.02;13.85;;;;;;;12.55;100.00;101629.50;1245492;23;20303;-77
2022/09/11 01:49:50;;;;;;;14.68;12.18;;;;;;;12.57;100.00;101625.59;1253058;23;20637;-77
2022/09/11 01:50:28;;;;;;;16.23;12.63;;;;;;;12.57;100.00;101624.75;1259277;23;20278;-77
2022/09/11 01:51:00;;;;;;;15.23;11.93;;;;;;;12.57;100.00;101630.94;1246860;23;20015;-77
2022/09/11 01:51:33;;;;;;;17.25;13.88;;;;;;;12.56;100.00;101626.63;1230167;24;20878;-77
2022/09/11 01:52:08;;;;;;;17.23;13.63;;;;;;;12.55;100.00;101633.00;1247539;23;20272;-77
2022/09/11 01:53:01;;;;;;;16.75;12.98;;;;;;;12.59;100.00;101628.03;1251310;23;20263;-77
2022/09/11 01:53:36;;;;;;;17.58;12.32;;;;;;;12.47;100.00;101630.56;1247302;23;20283;-77
2022/09/11 01:54:12;;;;;;;12.70;11.35;;;;;;;12.49;100.00;101627.66;1247597;23;20599;-77
2022/09/11 01:54:50;;;;;;;14.45;11.68;;;;;;;12.44;100.00;101630.16;1247396;23;20287;-77
2022/09/11 01:55:28;;;;;;;13.65;10.95;;;;;;;12.40;100.00;101629.75;1253397;23;20314;-77
2022/09/11 01:56:10;;;;;;;13.85;11.35;;;;;;;12.44;100.00;101630.16;1241441;23;20298;-77
2022/09/11 01:56:47;;;;;;;16.92;12.73;;;;;;;12.40;100.00;101629.75;1247516;23;20271;-77
2022/09/11 01:57:29;;;;;;;15.20;13.60;;;;;;;12.41;100.00;101626.06;1247353;23;20732;-77
2022/09/11 01:58:09;;;;;;;11.82;9.45;;;;;;;12.40;100.00;101629.75;1259437;23;20327;-77
2022/09/11 01:58:46;;;;;;;13.48;10.93;;;;;;;12.37;100.00;101638.19;1240859;23;20023;-77
2022/09/11 01:59:26;;;;;;;11.55;10.27;;;;;;;12.34;100.00;101625.25;1249868;23;20596;-77
2022/09/11 02:00:00;;;;;;;14.90;12.18;;;;;;;12.31;100.00;101636.31;1252485;23;20271;-77
2022/09/11 02:00:35;;;;;;;18.85;12.80;;;;;;;12.30;100.00;101632.00;1255715;23;20030;-77
2022/09/11 02:01:14;;;;;;;14.25;12.27;;;;;;;12.36;100.00;101628.53;1243556;23;20339;-77
2022/09/11 02:01:50;;;;;;;12.27;9.80;;;;;;;12.34;100.00;101633.28;1253352;23;20483;-77
2022/09/11 02:02:28;;;;;;;13.15;10.70;;;;;;;12.31;100.00;101639.00;1246987;23;20355;-77
2022/09/11 02:03:05;;;;;;;16.05;12.15;;;;;;;12.35;100.00;101634.91;1249621;23;20255;-77
2022/09/11 02:03:51;;;;;;;15.50;12.23;;;;;;;12.40;100.00;101629.75;1243426;23;20272;-77
2022/09/11 02:04:31;;;;;;;11.27;9.52;;;;;;;12.36;100.00;101639.22;1247613;23;20359;-77
2022/09/11 02:05:09;;;;;;;10.40;9.40;;;;;;;12.37;100.00;101630.19;1247014;23;20688;-77
2022/09/11 02:05:59;;;;;;;13.13;10.00;;;;;;;12.37;100.00;101639.00;1259565;23;20588;-77
2022/09/11 02:06:35;;;;;;;14.05;11.88;;;;;;;12.40;100.00;101634.28;1247066;23;20282;-77
2022/09/11 02:07:12;;;;;;;13.50;10.57;;;;;;;12.40;100.00;101639.63;1247504;23;20267;-77
2022/09/11 02:08:07;;;;;;;13.90;11.05;;;;;;;12.44;100.00;101635.50;1246437;23;20858;-77
2022/09/11 02:08:50;;;;;;;15.57;12.45;;;;;;;12.48;100.00;101642.88;1246374;23;20320;-77
2022/09/11 02:09:30;;;;;;;22.02;14.52;;;;;;;12.46;100.00;101634.25;1253538;23;20577;-77
2022/09/11 02:10:08;;;;;;;17.05;13.85;;;;;;;12.42;100.00;101638.38;1247584;23;20276;-77
2022/09/11 02:10:44;;;;;;;15.00;12.85;;;;;;;12.39;100.00;101633.47;1249670;23;20247;-77
2022/09/11 02:11:16;;;;;;;19.60;11.93;;;;;;;12.41;100.00;101636.75;1241615;23;20636;-77
2022/09/11 02:11:52;;;;;;;18.15;13.88;;;;;;;12.43;100.00;101634.69;1255732;23;20267;-77
2022/09/11 02:12:27;;;;;;;17.13;12.05;;;;;;;12.40;100.00;101632.44;1259481;23;20603;-77
2022/09/11 02:13:14;;;;;;;16.63;14.02;;;;;;;12.38;100.00;101637.16;1258870;23;20326;-77
2022/09/11 02:13:58;;;;;;;18.52;13.13;;;;;;;12.37;100.00;101640.88;1247658;23;20623;-77
2022/09/11 02:14:45;;;;;;;19.38;13.65;;;;;;;12.38;100.00;101634.50;1255311;23;20271;-77
2022/09/11 02:15:18;;;;;;;18.00;14.05;;;;;;;12.34;100.00;101641.28;1264980;23;20281;-77
2022/09/11 02:15:56;;;;;;;31.98;13.93;;;;;;;12.26;100.00;101634.28;1259388;23;20270;-77
2022/09/11 02:16:48;;;;;;;19.38;14.70;;;;;;;12.28;100.00;101636.75;1253311;23;20270;-77
2022/09/11 02:17:36;;;;;;;17.73;13.57;;;;;;;12.35;100.00;101629.56;1253152;23;20600;-77
2022/09/11 02:18:17;;;;;;;19.33;14.57;;;;;;;12.36;100.00;101634.69;1256763;23;20755;-77
2022/09/11 02:18:54;;;;;;;17.13;13.65;;;;;;;12.36;100.00;101629.34;1247729;23;20291;-77
2022/09/11 02:19:27;;;;;;;23.00;13.32;;;;;;;12.31;100.00;101631.81;1241236;23;20016;-77
2022/09/11 02:19:59;;;;;;;21.02;13.35;;;;;;;12.29;100.00;101627.69;1235664;24;20330;-77
2022/09/11 02:20:31;;;;;;;15.35;13.65;;;;;;;12.29;100.00;101627.69;1253109;23;20285;-77
2022/09/11 02:21:02;;;;;;;15.98;13.63;;;;;;;12.29;100.00;101628.53;1253401;23;20267;-77
2022/09/11 02:21:35;;;;;;;16.75;14.02;;;;;;;12.26;100.00;101630.78;1247618;23;20772;-77
2022/09/11 02:22:07;;;;;;;33.38;13.88;;;;;;;12.27;100.00;101630.59;1248628;23;20260;-77
2022/09/11 02:22:41;;;;;;;17.48;13.75;;;;;;;12.24;100.00;101631.00;1249550;23;20271;-77
2022/09/11 02:23:15;;;;;;;23.40;14.02;;;;;;;12.25;100.00;101623.81;1244122;23;20269;-77
2022/09/11 02:23:48;;;;;;;19.73;15.52;;;;;;;12.23;100.00;101623.19;1247640;23;20264;-77
2022/09/11 02:24:21;;;;;;;42.05;14.23;;;;;;;12.19;100.00;101621.97;1243550;23;20316;-77
2022/09/11 02:24:54;;;;;;;21.08;15.70;;;;;;;12.19;100.00;101633.47;1247485;23;20279;-77
2022/09/11 02:25:26;;;;;;;19.98;16.40;;;;;;;12.21;100.00;101631.41;1250988;23;20283;-77
2022/09/11 02:26:00;;;;;;;19.13;13.93;;;;;;;12.21;100.00;101630.59;1249443;23;20268;-77
2022/09/11 02:26:38;;;;;;;18.27;14.52;;;;;;;12.19;100.00;101627.31;1254140;23;20259;-77
2022/09/11 02:27:13;;;;;;;19.60;14.20;;;;;;;12.24;100.00;101630.19;1249297;23;20749;-77
2022/09/11 02:27:45;;;;;;;17.83;13.75;;;;;;;12.16;100.00;101638.41;1241497;23;20276;-77
2022/09/11 02:28:16;;;;;;;18.23;13.88;;;;;;;12.17;100.00;101634.72;1241802;23;20268;-77
2022/09/11 02:28:50;;;;;;;18.83;14.23;;;;;;;12.17;100.00;101627.53;1247199;23;20271;-77
2022/09/11 02:29:23;;;;;;;15.73;12.63;;;;;;;12.17;100.00;101629.38;1247539;23;20409;-77
2022/09/11 02:29:54;;;;;;;28.48;11.93;;;;;;;12.16;100.00;101633.06;1248331;23;20331;-77
2022/09/11 02:30:26;;;;;;;18.92;12.55;;;;;;;12.13;100.00;101633.50;1247837;23;20326;-77
2022/09/11 02:30:58;;;;;;;19.75;13.73;;;;;;;12.17;100.00;101634.72;1241132;23;20295;-77
2022/09/11 02:31:30;;;;;;;16.38;14.25;;;;;;;12.19;100.00;101627.31;1247317;23;20278;-77
2022/09/11 02:32:02;;;;;;;19.50;12.57;;;;;;;12.20;100.00;101639.63;1247737;23;20677;-77
2022/09/11 02:32:36;;;;;;;15.20;11.93;;;;;;;12.19;100.00;101638.81;1249771;23;20260;-77
2022/09/11 02:33:27;;;;;;;18.85;13.85;;;;;;;12.23;100.00;101628.53;1248353;23;20263;-77
2022/09/11 02:33:59;;;;;;;14.77;11.55;;;;;;;12.17;100.00;101640.88;1242550;23;20831;-77
2022/09/11 02:34:33;;;;;;;13.13;10.50;;;;;;;12.23;100.00;101629.34;1241037;23;20272;-77
2022/09/11 02:35:07;;;;;;;11.38;9.68;;;;;;;12.21;100.00;101630.59;1246878;23;20275;-77
2022/09/11 02:35:44;;;;;;;13.75;11.60;;;;;;;12.22;100.00;101627.72;1247350;23;20867;-77
2022/09/11 02:36:47;;;;;;;13.55;12.02;;;;;;;12.23;100.00;101628.53;1247009;23;20275;-77
2022/09/11 02:37:31;;;;;;;17.38;12.43;;;;;;;12.22;100.00;101626.91;1249106;23;20347;-77
2022/09/11 02:38:17;;;;;;;21.98;13.70;;;;;;;12.17;100.00;101624.03;1250435;23;20754;-77
2022/09/11 02:39:10;;;;;;;16.40;13.50;;;;;;;12.17;100.00;101634.72;1247261;23;20271;-77
2022/09/11 02:40:01;;;;;;;15.13;11.90;;;;;;;12.22;100.00;101630.38;1242869;23;20268;-77
2022/09/11 02:40:42;;;;;;;15.00;12.68;;;;;;;12.21;100.00;101628.75;1247482;23;20751;-77
2022/09/11 02:41:22;;;;;;;19.17;13.70;;;;;;;12.22;100.00;101632.25;1242057;23;20272;-77
2022/09/11 02:42:03;;;;;;;21.80;14.48;;;;;;;12.19;100.00;101627.31;1241617;23;20278;-77
2022/09/11 02:42:51;;;;;;;20.40;14.00;;;;;;;12.22;100.00;101632.25;1247000;23;20459;-77
2022/09/11 02:43:57;;;;;;;23.85;15.82;;;;;;;12.31;100.00;101636.31;1241360;23;20027;-77
2022/09/11 02:44:39;;;;;;;19.20;14.23;;;;;;;12.35;100.00;101632.22;1233962;24;20269;-77
2022/09/11 02:45:37;;;;;;;19.38;13.25;;;;;;;12.36;100.00;101633.88;1241618;23;20276;-77
2022/09/11 02:46:19;;;;;;;20.50;14.82;;;;;;;12.38;100.00;101631.81;1245718;23;20688;-77
2022/09/11 02:46:52;;;;;;;22.55;15.32;;;;;;;12.44;100.00;101630.16;1247764;23;20279;-77
2022/09/11 02:47:42;;;;;;;22.23;15.82;;;;;;;12.48;100.00;101631.38;1247570;23;20703;-77
2022/09/11 02:48:15;;;;;;;19.77;15.68;;;;;;;12.49;100.00;101644.53;1253258;23;20274;-77